sensor_id;sensor_type;location;lat;lon;timestamp;P1;durP1;ratioP1;P2;durP2;ratioP2
13795;SDS011;40911;51.552;9.874;2023-02-04T00:02:17;14.20;;;3.75;;
13795;SDS011;40911;51.552;9.874;2023-02-04T00:04:38;17.70;;;3.65;;
13795;SDS011;40911;51.552;9.874;2023-02-04T00:07:00;15.70;;;3.67;;
13795;SDS011;40911;51.552;9.874;2023-02-04T00:09:22;15.27;;;3.58;;
13795;SDS011;40911;51.552;9.874;2023-02-04T00:11:44;19.48;;;5.10;;
13795;SDS011;40911;51.552;9.874;2023-02-04T00:14:07;15.55;;;3.85;;
13795;SDS011;40911;51.552;9.874;2023-02-04T00:16:28;13.90;;;4.00;;
13795;SDS011;40911;51.552;9.874;2023-02-04T00:18:50;21.00;;;4.25;;
13795;SDS011;40911;51.552;9.874;2023-02-04T00:21:12;17.38;;;3.92;;
13795;SDS011;40911;51.552;9.874;2023-02-04T00:23:34;17.67;;;4.15;;
13795;SDS011;40911;51.552;9.874;2023-02-04T00:25:55;10.18;;;3.53;;
13795;SDS011;40911;51.552;9.874;2023-02-04T00:28:17;15.00;;;4.93;;
13795;SDS011;40911;51.552;9.874;2023-02-04T00:30:40;18.13;;;4.32;;
13795;SDS011;40911;51.552;9.874;2023-02-04T00:33:02;19.55;;;4.53;;
13795;SDS011;40911;51.552;9.874;2023-02-04T00:35:24;15.30;;;4.57;;
13795;SDS011;40911;51.552;9.874;2023-02-04T00:37:45;17.38;;;4.15;;
13795;SDS011;40911;51.552;9.874;2023-02-04T00:40:08;23.50;;;5.38;;
13795;SDS011;40911;51.552;9.874;2023-02-04T00:42:30;17.80;;;4.75;;
13795;SDS011;40911;51.552;9.874;2023-02-04T00:44:52;19.38;;;5.15;;
13795;SDS011;40911;51.552;9.874;2023-02-04T00:47:15;22.42;;;5.45;;
13795;SDS011;40911;51.552;9.874;2023-02-04T00:49:37;25.40;;;4.70;;
13795;SDS011;40911;51.552;9.874;2023-02-04T00:51:58;20.15;;;4.65;;
13795;SDS011;40911;51.552;9.874;2023-02-04T00:54:21;24.83;;;4.57;;
13795;SDS011;40911;51.552;9.874;2023-02-04T00:56:43;23.73;;;5.03;;
13795;SDS011;40911;51.552;9.874;2023-02-04T00:59:05;23.95;;;4.93;;
13795;SDS011;40911;51.552;9.874;2023-02-04T01:01:27;24.02;;;4.82;;
13795;SDS011;40911;51.552;9.874;2023-02-04T01:03:51;24.48;;;5.28;;
13795;SDS011;40911;51.552;9.874;2023-02-04T01:06:12;23.95;;;4.65;;
13795;SDS011;40911;51.552;9.874;2023-02-04T01:08:34;18.35;;;5.15;;
13795;SDS011;40911;51.552;9.874;2023-02-04T01:10:56;16.90;;;3.97;;
13795;SDS011;40911;51.552;9.874;2023-02-04T01:13:18;18.23;;;3.90;;
13795;SDS011;40911;51.552;9.874;2023-02-04T01:15:39;20.10;;;4.68;;
13795;SDS011;40911;51.552;9.874;2023-02-04T01:18:01;22.88;;;4.32;;
13795;SDS011;40911;51.552;9.874;2023-02-04T01:20:24;15.07;;;4.30;;
13795;SDS011;40911;51.552;9.874;2023-02-04T01:22:46;19.70;;;4.50;;
13795;SDS011;40911;51.552;9.874;2023-02-04T01:27:29;21.27;;;4.20;;
13795;SDS011;40911;51.552;9.874;2023-02-04T01:29:51;17.65;;;3.95;;
13795;SDS011;40911;51.552;9.874;2023-02-04T01:32:12;20.67;;;4.30;;
13795;SDS011;40911;51.552;9.874;2023-02-04T01:34:34;12.95;;;3.75;;
13795;SDS011;40911;51.552;9.874;2023-02-04T01:36:57;17.20;;;4.88;;
13795;SDS011;40911;51.552;9.874;2023-02-04T01:39:19;23.33;;;4.93;;
13795;SDS011;40911;51.552;9.874;2023-02-04T01:41:40;17.92;;;4.07;;
13795;SDS011;40911;51.552;9.874;2023-02-04T01:44:02;17.70;;;3.92;;
13795;SDS011;40911;51.552;9.874;2023-02-04T01:46:24;17.42;;;4.63;;
13795;SDS011;40911;51.552;9.874;2023-02-04T01:51:07;13.55;;;3.38;;
13795;SDS011;40911;51.552;9.874;2023-02-04T01:53:32;14.93;;;4.20;;
13795;SDS011;40911;51.552;9.874;2023-02-04T01:55:55;17.75;;;4.10;;
13795;SDS011;40911;51.552;9.874;2023-02-04T02:00:39;18.52;;;3.97;;
13795;SDS011;40911;51.552;9.874;2023-02-04T02:03:00;16.20;;;5.25;;
13795;SDS011;40911;51.552;9.874;2023-02-04T02:05:24;7.65;;;3.63;;
13795;SDS011;40911;51.552;9.874;2023-02-04T02:07:52;15.80;;;4.05;;
13795;SDS011;40911;51.552;9.874;2023-02-04T02:10:17;20.67;;;4.50;;
13795;SDS011;40911;51.552;9.874;2023-02-04T02:12:40;14.90;;;4.30;;
13795;SDS011;40911;51.552;9.874;2023-02-04T02:15:02;19.13;;;3.85;;
13795;SDS011;40911;51.552;9.874;2023-02-04T02:17:25;17.15;;;3.83;;
13795;SDS011;40911;51.552;9.874;2023-02-04T02:19:46;22.55;;;5.03;;
13795;SDS011;40911;51.552;9.874;2023-02-04T02:24:35;18.25;;;4.90;;
13795;SDS011;40911;51.552;9.874;2023-02-04T02:26:57;15.40;;;4.72;;
13795;SDS011;40911;51.552;9.874;2023-02-04T02:29:20;18.90;;;4.20;;
13795;SDS011;40911;51.552;9.874;2023-02-04T02:31:42;14.90;;;4.20;;
13795;SDS011;40911;51.552;9.874;2023-02-04T02:36:25;19.67;;;4.35;;
13795;SDS011;40911;51.552;9.874;2023-02-04T02:38:47;21.58;;;4.28;;
13795;SDS011;40911;51.552;9.874;2023-02-04T02:43:32;14.85;;;4.00;;
13795;SDS011;40911;51.552;9.874;2023-02-04T02:45:54;17.60;;;4.22;;
13795;SDS011;40911;51.552;9.874;2023-02-04T02:48:18;20.08;;;4.55;;
13795;SDS011;40911;51.552;9.874;2023-02-04T02:53:02;14.10;;;3.78;;
13795;SDS011;40911;51.552;9.874;2023-02-04T02:55:24;16.77;;;4.28;;
13795;SDS011;40911;51.552;9.874;2023-02-04T02:57:49;13.90;;;4.00;;
13795;SDS011;40911;51.552;9.874;2023-02-04T03:00:13;20.73;;;4.70;;
13795;SDS011;40911;51.552;9.874;2023-02-04T03:02:36;14.45;;;4.60;;
13795;SDS011;40911;51.552;9.874;2023-02-04T03:04:58;23.35;;;3.83;;
13795;SDS011;40911;51.552;9.874;2023-02-04T03:07:20;15.63;;;4.78;;
13795;SDS011;40911;51.552;9.874;2023-02-04T03:09:43;14.95;;;4.00;;
13795;SDS011;40911;51.552;9.874;2023-02-04T03:12:05;21.55;;;4.32;;
13795;SDS011;40911;51.552;9.874;2023-02-04T03:14:28;18.33;;;4.10;;
13795;SDS011;40911;51.552;9.874;2023-02-04T03:16:50;13.00;;;4.10;;
13795;SDS011;40911;51.552;9.874;2023-02-04T03:19:13;13.52;;;3.85;;
13795;SDS011;40911;51.552;9.874;2023-02-04T03:21:35;11.25;;;3.47;;
13795;SDS011;40911;51.552;9.874;2023-02-04T03:23:57;12.50;;;3.60;;
13795;SDS011;40911;51.552;9.874;2023-02-04T03:26:18;19.10;;;4.00;;
13795;SDS011;40911;51.552;9.874;2023-02-04T03:28:40;17.48;;;4.28;;
13795;SDS011;40911;51.552;9.874;2023-02-04T03:31:04;13.75;;;3.60;;
13795;SDS011;40911;51.552;9.874;2023-02-04T03:33:26;12.93;;;3.60;;
13795;SDS011;40911;51.552;9.874;2023-02-04T03:35:50;10.27;;;3.40;;
13795;SDS011;40911;51.552;9.874;2023-02-04T03:38:12;11.68;;;3.50;;
13795;SDS011;40911;51.552;9.874;2023-02-04T03:40:34;11.13;;;3.65;;
13795;SDS011;40911;51.552;9.874;2023-02-04T03:42:55;15.95;;;3.47;;
13795;SDS011;40911;51.552;9.874;2023-02-04T03:45:17;12.45;;;3.83;;
13795;SDS011;40911;51.552;9.874;2023-02-04T03:50:02;9.38;;;3.30;;
13795;SDS011;40911;51.552;9.874;2023-02-04T03:52:24;12.13;;;3.47;;
13795;SDS011;40911;51.552;9.874;2023-02-04T03:54:45;8.32;;;3.15;;
13795;SDS011;40911;51.552;9.874;2023-02-04T03:59:29;6.97;;;2.95;;
13795;SDS011;40911;51.552;9.874;2023-02-04T04:01:51;4.47;;;2.70;;
13795;SDS011;40911;51.552;9.874;2023-02-04T04:04:14;2.55;;;2.35;;
13795;SDS011;40911;51.552;9.874;2023-02-04T04:06:36;2.50;;;2.40;;
13795;SDS011;40911;51.552;9.874;2023-02-04T04:11:19;3.80;;;2.60;;
13795;SDS011;40911;51.552;9.874;2023-02-04T04:13:41;2.60;;;2.50;;
13795;SDS011;40911;51.552;9.874;2023-02-04T04:16:02;4.03;;;2.70;;
13795;SDS011;40911;51.552;9.874;2023-02-04T04:18:24;2.40;;;2.30;;
13795;SDS011;40911;51.552;9.874;2023-02-04T04:20:47;2.40;;;2.30;;
13795;SDS011;40911;51.552;9.874;2023-02-04T04:23:09;2.88;;;2.50;;
13795;SDS011;40911;51.552;9.874;2023-02-04T04:25:30;3.40;;;2.67;;
13795;SDS011;40911;51.552;9.874;2023-02-04T04:27:52;2.58;;;2.40;;
13795;SDS011;40911;51.552;9.874;2023-02-04T04:30:14;3.30;;;2.65;;
13795;SDS011;40911;51.552;9.874;2023-02-04T04:34:57;3.42;;;2.45;;
13795;SDS011;40911;51.552;9.874;2023-02-04T04:37:20;2.92;;;2.72;;
13795;SDS011;40911;51.552;9.874;2023-02-04T04:39:42;2.88;;;2.67;;
13795;SDS011;40911;51.552;9.874;2023-02-04T04:42:03;2.88;;;2.65;;
13795;SDS011;40911;51.552;9.874;2023-02-04T04:46:47;2.97;;;2.80;;
13795;SDS011;40911;51.552;9.874;2023-02-04T04:49:08;2.67;;;2.58;;
13795;SDS011;40911;51.552;9.874;2023-02-04T04:51:30;3.03;;;2.83;;
13795;SDS011;40911;51.552;9.874;2023-02-04T04:56:15;3.00;;;2.70;;
13795;SDS011;40911;51.552;9.874;2023-02-04T04:58:38;2.70;;;2.60;;
13795;SDS011;40911;51.552;9.874;2023-02-04T05:00:59;3.20;;;2.90;;
13795;SDS011;40911;51.552;9.874;2023-02-04T05:03:21;2.72;;;2.58;;
13795;SDS011;40911;51.552;9.874;2023-02-04T05:05:43;3.58;;;3.10;;
13795;SDS011;40911;51.552;9.874;2023-02-04T05:08:04;3.13;;;2.92;;
13795;SDS011;40911;51.552;9.874;2023-02-04T05:10:31;3.55;;;3.35;;
13795;SDS011;40911;51.552;9.874;2023-02-04T05:12:52;3.47;;;2.88;;
13795;SDS011;40911;51.552;9.874;2023-02-04T05:15:14;3.20;;;3.00;;
13795;SDS011;40911;51.552;9.874;2023-02-04T05:17:36;3.10;;;2.85;;
13795;SDS011;40911;51.552;9.874;2023-02-04T05:19:58;3.00;;;2.80;;
13795;SDS011;40911;51.552;9.874;2023-02-04T05:24:41;4.00;;;3.20;;
13795;SDS011;40911;51.552;9.874;2023-02-04T05:27:04;3.60;;;3.22;;
13795;SDS011;40911;51.552;9.874;2023-02-04T05:29:26;3.58;;;2.90;;
13795;SDS011;40911;51.552;9.874;2023-02-04T05:31:48;5.63;;;3.38;;
13795;SDS011;40911;51.552;9.874;2023-02-04T05:34:09;3.38;;;3.08;;
13795;SDS011;40911;51.552;9.874;2023-02-04T05:36:31;3.17;;;2.97;;
13795;SDS011;40911;51.552;9.874;2023-02-04T05:38:53;3.60;;;3.30;;
13795;SDS011;40911;51.552;9.874;2023-02-04T05:41:14;3.08;;;2.90;;
13795;SDS011;40911;51.552;9.874;2023-02-04T05:43:37;3.53;;;3.10;;
13795;SDS011;40911;51.552;9.874;2023-02-04T05:45:59;3.25;;;3.05;;
13795;SDS011;40911;51.552;9.874;2023-02-04T05:50:43;3.58;;;3.10;;
13795;SDS011;40911;51.552;9.874;2023-02-04T05:53:05;3.10;;;2.90;;
13795;SDS011;40911;51.552;9.874;2023-02-04T05:55:27;3.38;;;3.15;;
13795;SDS011;40911;51.552;9.874;2023-02-04T05:57:48;3.50;;;3.30;;
13795;SDS011;40911;51.552;9.874;2023-02-04T06:00:13;4.50;;;3.58;;
13795;SDS011;40911;51.552;9.874;2023-02-04T06:02:35;3.45;;;3.15;;
13795;SDS011;40911;51.552;9.874;2023-02-04T06:04:56;5.35;;;3.40;;
13795;SDS011;40911;51.552;9.874;2023-02-04T06:09:40;4.10;;;3.80;;
13795;SDS011;40911;51.552;9.874;2023-02-04T06:12:01;3.70;;;3.40;;
13795;SDS011;40911;51.552;9.874;2023-02-04T06:14:23;4.35;;;3.22;;
13795;SDS011;40911;51.552;9.874;2023-02-04T06:16:46;4.18;;;3.50;;
13795;SDS011;40911;51.552;9.874;2023-02-04T06:19:08;4.38;;;3.22;;
13795;SDS011;40911;51.552;9.874;2023-02-04T06:21:30;3.47;;;3.17;;
13795;SDS011;40911;51.552;9.874;2023-02-04T06:23:51;3.70;;;3.40;;
13795;SDS011;40911;51.552;9.874;2023-02-04T06:26:13;3.90;;;3.50;;
13795;SDS011;40911;51.552;9.874;2023-02-04T06:28:35;3.70;;;3.17;;
13795;SDS011;40911;51.552;9.874;2023-02-04T06:30:56;5.43;;;3.40;;
13795;SDS011;40911;51.552;9.874;2023-02-04T06:33:19;3.67;;;3.38;;
13795;SDS011;40911;51.552;9.874;2023-02-04T06:35:43;3.72;;;3.33;;
13795;SDS011;40911;51.552;9.874;2023-02-04T06:40:26;3.15;;;2.95;;
13795;SDS011;40911;51.552;9.874;2023-02-04T06:42:48;3.55;;;3.22;;
13795;SDS011;40911;51.552;9.874;2023-02-04T06:45:09;3.40;;;3.20;;
13795;SDS011;40911;51.552;9.874;2023-02-04T06:47:31;3.50;;;3.20;;
13795;SDS011;40911;51.552;9.874;2023-02-04T06:52:15;3.80;;;3.50;;
13795;SDS011;40911;51.552;9.874;2023-02-04T06:56:59;7.18;;;3.63;;
13795;SDS011;40911;51.552;9.874;2023-02-04T06:59:25;3.80;;;3.50;;
13795;SDS011;40911;51.552;9.874;2023-02-04T07:01:51;4.78;;;3.47;;
13795;SDS011;40911;51.552;9.874;2023-02-04T07:04:15;4.10;;;3.70;;
13795;SDS011;40911;51.552;9.874;2023-02-04T07:06:38;4.18;;;3.70;;
13795;SDS011;40911;51.552;9.874;2023-02-04T07:09:00;9.25;;;5.28;;
13795;SDS011;40911;51.552;9.874;2023-02-04T07:13:43;29.17;;;10.10;;
13795;SDS011;40911;51.552;9.874;2023-02-04T07:16:05;22.27;;;7.78;;
13795;SDS011;40911;51.552;9.874;2023-02-04T07:18:27;9.85;;;5.55;;
13795;SDS011;40911;51.552;9.874;2023-02-04T07:20:49;8.80;;;5.13;;
13795;SDS011;40911;51.552;9.874;2023-02-04T07:23:12;6.70;;;4.95;;
13795;SDS011;40911;51.552;9.874;2023-02-04T07:25:34;7.25;;;4.70;;
13795;SDS011;40911;51.552;9.874;2023-02-04T07:27:55;6.50;;;5.00;;
13795;SDS011;40911;51.552;9.874;2023-02-04T07:30:18;4.50;;;4.10;;
13795;SDS011;40911;51.552;9.874;2023-02-04T07:32:40;5.13;;;4.63;;
13795;SDS011;40911;51.552;9.874;2023-02-04T07:35:01;4.97;;;4.55;;
13795;SDS011;40911;51.552;9.874;2023-02-04T07:37:23;8.90;;;6.03;;
13795;SDS011;40911;51.552;9.874;2023-02-04T07:39:46;8.88;;;5.20;;
13795;SDS011;40911;51.552;9.874;2023-02-04T07:42:07;7.18;;;4.82;;
13795;SDS011;40911;51.552;9.874;2023-02-04T07:44:29;7.93;;;5.28;;
13795;SDS011;40911;51.552;9.874;2023-02-04T07:46:51;7.28;;;4.70;;
13795;SDS011;40911;51.552;9.874;2023-02-04T07:49:12;4.63;;;3.95;;
13795;SDS011;40911;51.552;9.874;2023-02-04T07:51:34;4.30;;;4.00;;
13795;SDS011;40911;51.552;9.874;2023-02-04T07:53:56;5.55;;;4.32;;
13795;SDS011;40911;51.552;9.874;2023-02-04T07:56:19;6.47;;;4.10;;
13795;SDS011;40911;51.552;9.874;2023-02-04T07:58:40;7.80;;;4.32;;
13795;SDS011;40911;51.552;9.874;2023-02-04T08:01:02;4.30;;;3.90;;
13795;SDS011;40911;51.552;9.874;2023-02-04T08:05:46;6.15;;;3.92;;
13795;SDS011;40911;51.552;9.874;2023-02-04T08:08:07;5.18;;;3.88;;
13795;SDS011;40911;51.552;9.874;2023-02-04T08:10:29;5.45;;;4.13;;
13795;SDS011;40911;51.552;9.874;2023-02-04T08:12:52;4.20;;;3.90;;
13795;SDS011;40911;51.552;9.874;2023-02-04T08:15:14;5.53;;;4.40;;
13795;SDS011;40911;51.552;9.874;2023-02-04T08:19:57;4.22;;;3.90;;
13795;SDS011;40911;51.552;9.874;2023-02-04T08:22:19;4.82;;;4.40;;
13795;SDS011;40911;51.552;9.874;2023-02-04T08:24:40;4.63;;;4.13;;
13795;SDS011;40911;51.552;9.874;2023-02-04T08:27:02;5.57;;;4.22;;
13795;SDS011;40911;51.552;9.874;2023-02-04T08:29:25;4.70;;;4.05;;
13795;SDS011;40911;51.552;9.874;2023-02-04T08:31:47;4.40;;;4.00;;
13795;SDS011;40911;51.552;9.874;2023-02-04T08:34:09;4.30;;;3.85;;
13795;SDS011;40911;51.552;9.874;2023-02-04T08:38:52;5.30;;;4.03;;
13795;SDS011;40911;51.552;9.874;2023-02-04T08:41:13;4.20;;;3.80;;
13795;SDS011;40911;51.552;9.874;2023-02-04T08:43:35;4.55;;;4.00;;
13795;SDS011;40911;51.552;9.874;2023-02-04T08:45:58;4.38;;;3.97;;
13795;SDS011;40911;51.552;9.874;2023-02-04T08:48:20;6.53;;;4.20;;
13795;SDS011;40911;51.552;9.874;2023-02-04T08:50:42;4.60;;;4.20;;
13795;SDS011;40911;51.552;9.874;2023-02-04T08:55:25;4.35;;;3.95;;
13795;SDS011;40911;51.552;9.874;2023-02-04T08:57:47;6.10;;;4.10;;
13795;SDS011;40911;51.552;9.874;2023-02-04T09:00:09;4.80;;;4.32;;
13795;SDS011;40911;51.552;9.874;2023-02-04T09:02:33;5.15;;;4.07;;
13795;SDS011;40911;51.552;9.874;2023-02-04T09:04:55;6.43;;;4.22;;
13795;SDS011;40911;51.552;9.874;2023-02-04T09:07:16;4.40;;;4.10;;
13795;SDS011;40911;51.552;9.874;2023-02-04T09:09:38;5.43;;;4.15;;
13795;SDS011;40911;51.552;9.874;2023-02-04T09:12:00;4.38;;;3.97;;
13795;SDS011;40911;51.552;9.874;2023-02-04T09:14:22;5.03;;;4.00;;
13795;SDS011;40911;51.552;9.874;2023-02-04T09:16:43;4.32;;;3.78;;
13795;SDS011;40911;51.552;9.874;2023-02-04T09:19:06;4.95;;;3.97;;
13795;SDS011;40911;51.552;9.874;2023-02-04T09:21:31;4.03;;;3.72;;
13795;SDS011;40911;51.552;9.874;2023-02-04T09:23:53;6.70;;;3.55;;
13795;SDS011;40911;51.552;9.874;2023-02-04T09:26:15;4.40;;;4.00;;
13795;SDS011;40911;51.552;9.874;2023-02-04T09:28:37;4.30;;;3.97;;
13795;SDS011;40911;51.552;9.874;2023-02-04T09:30:59;4.28;;;3.90;;
13795;SDS011;40911;51.552;9.874;2023-02-04T09:33:20;5.53;;;4.00;;
13795;SDS011;40911;51.552;9.874;2023-02-04T09:35:43;5.53;;;3.90;;
13795;SDS011;40911;51.552;9.874;2023-02-04T09:38:05;4.07;;;3.75;;
13795;SDS011;40911;51.552;9.874;2023-02-04T09:40:27;5.43;;;4.70;;
13795;SDS011;40911;51.552;9.874;2023-02-04T09:42:51;4.80;;;4.40;;
13795;SDS011;40911;51.552;9.874;2023-02-04T09:45:13;4.03;;;3.67;;
13795;SDS011;40911;51.552;9.874;2023-02-04T09:47:38;4.85;;;3.88;;
13795;SDS011;40911;51.552;9.874;2023-02-04T09:50:00;7.05;;;4.80;;
13795;SDS011;40911;51.552;9.874;2023-02-04T09:52:23;4.18;;;3.70;;
13795;SDS011;40911;51.552;9.874;2023-02-04T09:54:46;4.38;;;3.70;;
13795;SDS011;40911;51.552;9.874;2023-02-04T09:57:09;5.38;;;3.67;;
13795;SDS011;40911;51.552;9.874;2023-02-04T09:59:35;3.83;;;3.22;;
13795;SDS011;40911;51.552;9.874;2023-02-04T10:02:03;4.38;;;3.17;;
13795;SDS011;40911;51.552;9.874;2023-02-04T10:04:40;3.50;;;3.20;;
13795;SDS011;40911;51.552;9.874;2023-02-04T10:07:01;2.75;;;2.63;;
13795;SDS011;40911;51.552;9.874;2023-02-04T10:09:24;2.78;;;2.58;;
13795;SDS011;40911;51.552;9.874;2023-02-04T10:11:46;2.63;;;2.40;;
13795;SDS011;40911;51.552;9.874;2023-02-04T10:14:10;3.38;;;2.95;;
13795;SDS011;40911;51.552;9.874;2023-02-04T10:16:34;2.72;;;2.50;;
13795;SDS011;40911;51.552;9.874;2023-02-04T10:19:02;3.28;;;3.08;;
13795;SDS011;40911;51.552;9.874;2023-02-04T10:21:27;2.70;;;2.50;;
13795;SDS011;40911;51.552;9.874;2023-02-04T10:23:52;3.00;;;2.60;;
13795;SDS011;40911;51.552;9.874;2023-02-04T10:26:24;3.20;;;2.50;;
13795;SDS011;40911;51.552;9.874;2023-02-04T10:28:47;2.80;;;2.60;;
13795;SDS011;40911;51.552;9.874;2023-02-04T10:31:26;2.90;;;2.70;;
13795;SDS011;40911;51.552;9.874;2023-02-04T10:33:49;3.67;;;2.85;;
13795;SDS011;40911;51.552;9.874;2023-02-04T10:36:11;3.05;;;2.60;;
13795;SDS011;40911;51.552;9.874;2023-02-04T10:38:33;2.80;;;2.60;;
13795;SDS011;40911;51.552;9.874;2023-02-04T10:41:01;2.80;;;2.60;;
13795;SDS011;40911;51.552;9.874;2023-02-04T10:43:26;3.00;;;2.70;;
13795;SDS011;40911;51.552;9.874;2023-02-04T10:45:54;3.30;;;3.00;;
13795;SDS011;40911;51.552;9.874;2023-02-04T10:48:18;3.08;;;2.75;;
13795;SDS011;40911;51.552;9.874;2023-02-04T10:50:40;3.15;;;2.60;;
13795;SDS011;40911;51.552;9.874;2023-02-04T10:53:01;2.97;;;2.60;;
13795;SDS011;40911;51.552;9.874;2023-02-04T10:55:41;3.10;;;2.90;;
13795;SDS011;40911;51.552;9.874;2023-02-04T10:58:03;3.33;;;2.75;;
13795;SDS011;40911;51.552;9.874;2023-02-04T11:02:52;2.72;;;2.60;;
13795;SDS011;40911;51.552;9.874;2023-02-04T11:05:19;3.92;;;3.00;;
13795;SDS011;40911;51.552;9.874;2023-02-04T11:07:43;3.25;;;2.80;;
13795;SDS011;40911;51.552;9.874;2023-02-04T11:10:09;2.63;;;2.42;;
13795;SDS011;40911;51.552;9.874;2023-02-04T11:12:36;2.85;;;2.42;;
13795;SDS011;40911;51.552;9.874;2023-02-04T11:15:00;3.00;;;2.72;;
13795;SDS011;40911;51.552;9.874;2023-02-04T11:19:50;3.05;;;2.80;;
13795;SDS011;40911;51.552;9.874;2023-02-04T11:22:19;3.92;;;3.53;;
13795;SDS011;40911;51.552;9.874;2023-02-04T11:24:43;2.95;;;2.75;;
13795;SDS011;40911;51.552;9.874;2023-02-04T11:27:06;3.28;;;2.95;;
13795;SDS011;40911;51.552;9.874;2023-02-04T11:29:39;3.40;;;2.90;;
13795;SDS011;40911;51.552;9.874;2023-02-04T11:32:03;2.85;;;2.65;;
13795;SDS011;40911;51.552;9.874;2023-02-04T11:34:30;3.70;;;3.40;;
13795;SDS011;40911;51.552;9.874;2023-02-04T11:39:57;3.88;;;3.10;;
13795;SDS011;40911;51.552;9.874;2023-02-04T11:42:21;3.13;;;2.92;;
13795;SDS011;40911;51.552;9.874;2023-02-04T11:44:47;2.95;;;2.75;;
13795;SDS011;40911;51.552;9.874;2023-02-04T11:47:12;2.80;;;2.70;;
13795;SDS011;40911;51.552;9.874;2023-02-04T11:49:35;3.20;;;3.00;;
13795;SDS011;40911;51.552;9.874;2023-02-04T11:52:04;3.53;;;2.80;;
13795;SDS011;40911;51.552;9.874;2023-02-04T11:54:27;4.68;;;3.20;;
13795;SDS011;40911;51.552;9.874;2023-02-04T11:56:51;3.05;;;2.78;;
13795;SDS011;40911;51.552;9.874;2023-02-04T11:59:13;3.20;;;3.00;;
13795;SDS011;40911;51.552;9.874;2023-02-04T12:01:36;2.85;;;2.65;;
13795;SDS011;40911;51.552;9.874;2023-02-04T12:03:59;3.05;;;2.85;;
13795;SDS011;40911;51.552;9.874;2023-02-04T12:06:24;3.67;;;2.63;;
13795;SDS011;40911;51.552;9.874;2023-02-04T12:08:48;4.68;;;2.80;;
13795;SDS011;40911;51.552;9.874;2023-02-04T12:11:10;3.60;;;2.80;;
13795;SDS011;40911;51.552;9.874;2023-02-04T12:13:45;3.70;;;2.60;;
13795;SDS011;40911;51.552;9.874;2023-02-04T12:16:09;2.58;;;2.47;;
13795;SDS011;40911;51.552;9.874;2023-02-04T12:18:31;2.53;;;2.40;;
13795;SDS011;40911;51.552;9.874;2023-02-04T12:20:56;2.70;;;2.50;;
13795;SDS011;40911;51.552;9.874;2023-02-04T12:23:20;2.50;;;2.35;;
13795;SDS011;40911;51.552;9.874;2023-02-04T12:25:42;2.40;;;2.30;;
13795;SDS011;40911;51.552;9.874;2023-02-04T12:28:04;2.80;;;2.60;;
13795;SDS011;40911;51.552;9.874;2023-02-04T12:30:25;2.63;;;2.53;;
13795;SDS011;40911;51.552;9.874;2023-02-04T12:32:47;2.60;;;2.50;;
13795;SDS011;40911;51.552;9.874;2023-02-04T12:35:09;4.05;;;2.47;;
13795;SDS011;40911;51.552;9.874;2023-02-04T12:37:31;2.60;;;2.40;;
13795;SDS011;40911;51.552;9.874;2023-02-04T12:39:54;3.08;;;2.55;;
13795;SDS011;40911;51.552;9.874;2023-02-04T12:42:16;2.80;;;2.60;;
13795;SDS011;40911;51.552;9.874;2023-02-04T12:44:37;2.78;;;2.63;;
13795;SDS011;40911;51.552;9.874;2023-02-04T12:46:59;2.45;;;2.35;;
13795;SDS011;40911;51.552;9.874;2023-02-04T12:49:20;3.20;;;2.90;;
13795;SDS011;40911;51.552;9.874;2023-02-04T12:51:43;2.95;;;2.75;;
13795;SDS011;40911;51.552;9.874;2023-02-04T12:54:05;3.03;;;2.70;;
13795;SDS011;40911;51.552;9.874;2023-02-04T12:56:28;2.70;;;2.50;;
13795;SDS011;40911;51.552;9.874;2023-02-04T12:58:49;3.25;;;2.88;;
13795;SDS011;40911;51.552;9.874;2023-02-04T13:03:33;2.63;;;2.45;;
13795;SDS011;40911;51.552;9.874;2023-02-04T13:05:54;2.75;;;2.60;;
13795;SDS011;40911;51.552;9.874;2023-02-04T13:08:16;2.53;;;2.33;;
13795;SDS011;40911;51.552;9.874;2023-02-04T13:13:00;2.78;;;2.60;;
13795;SDS011;40911;51.552;9.874;2023-02-04T13:15:23;2.65;;;2.47;;
13795;SDS011;40911;51.552;9.874;2023-02-04T13:20:06;2.58;;;2.38;;
13795;SDS011;40911;51.552;9.874;2023-02-04T13:22:29;2.35;;;2.25;;
13795;SDS011;40911;51.552;9.874;2023-02-04T13:24:51;2.65;;;2.45;;
13795;SDS011;40911;51.552;9.874;2023-02-04T13:27:12;2.92;;;2.72;;
13795;SDS011;40911;51.552;9.874;2023-02-04T13:29:35;2.60;;;2.35;;
13795;SDS011;40911;51.552;9.874;2023-02-04T13:31:57;2.60;;;2.40;;
13795;SDS011;40911;51.552;9.874;2023-02-04T13:36:40;3.15;;;2.50;;
13795;SDS011;40911;51.552;9.874;2023-02-04T13:39:03;2.50;;;2.30;;
13795;SDS011;40911;51.552;9.874;2023-02-04T13:41:24;2.47;;;2.38;;
13795;SDS011;40911;51.552;9.874;2023-02-04T13:43:46;2.50;;;2.40;;
13795;SDS011;40911;51.552;9.874;2023-02-04T13:48:31;3.55;;;3.25;;
13795;SDS011;40911;51.552;9.874;2023-02-04T13:50:54;3.05;;;2.83;;
13795;SDS011;40911;51.552;9.874;2023-02-04T13:53:16;3.30;;;2.40;;
13795;SDS011;40911;51.552;9.874;2023-02-04T13:55:38;2.97;;;2.80;;
13795;SDS011;40911;51.552;9.874;2023-02-04T14:00:21;2.80;;;2.60;;
13795;SDS011;40911;51.552;9.874;2023-02-04T14:02:46;2.38;;;2.28;;
13795;SDS011;40911;51.552;9.874;2023-02-04T14:05:08;19.17;;;17.27;;
13795;SDS011;40911;51.552;9.874;2023-02-04T14:09:52;9.27;;;8.57;;
13795;SDS011;40911;51.552;9.874;2023-02-04T14:12:14;3.78;;;3.58;;
13795;SDS011;40911;51.552;9.874;2023-02-04T14:14:36;2.60;;;2.50;;
13795;SDS011;40911;51.552;9.874;2023-02-04T14:19:20;2.67;;;2.47;;
13795;SDS011;40911;51.552;9.874;2023-02-04T14:21:46;3.28;;;3.08;;
13795;SDS011;40911;51.552;9.874;2023-02-04T14:24:09;7.65;;;6.18;;
13795;SDS011;40911;51.552;9.874;2023-02-04T14:26:31;4.82;;;3.53;;
13795;SDS011;40911;51.552;9.874;2023-02-04T14:31:14;3.80;;;3.50;;
13795;SDS011;40911;51.552;9.874;2023-02-04T14:35:59;3.30;;;3.00;;
13795;SDS011;40911;51.552;9.874;2023-02-04T14:38:20;4.28;;;3.90;;
13795;SDS011;40911;51.552;9.874;2023-02-04T14:40:42;4.55;;;3.80;;
13795;SDS011;40911;51.552;9.874;2023-02-04T14:43:04;3.90;;;3.63;;
13795;SDS011;40911;51.552;9.874;2023-02-04T14:45:27;2.88;;;2.67;;
13795;SDS011;40911;51.552;9.874;2023-02-04T14:47:49;2.80;;;2.60;;
13795;SDS011;40911;51.552;9.874;2023-02-04T14:50:12;2.80;;;2.60;;
13795;SDS011;40911;51.552;9.874;2023-02-04T14:52:37;7.70;;;5.45;;
13795;SDS011;40911;51.552;9.874;2023-02-04T14:54:59;4.40;;;3.75;;
13795;SDS011;40911;51.552;9.874;2023-02-04T14:57:21;4.35;;;3.95;;
13795;SDS011;40911;51.552;9.874;2023-02-04T14:59:42;4.28;;;3.88;;
13795;SDS011;40911;51.552;9.874;2023-02-04T15:02:04;4.15;;;3.60;;
13795;SDS011;40911;51.552;9.874;2023-02-04T15:04:26;4.10;;;3.22;;
13795;SDS011;40911;51.552;9.874;2023-02-04T15:06:48;3.60;;;3.30;;
13795;SDS011;40911;51.552;9.874;2023-02-04T15:09:14;3.30;;;3.10;;
13795;SDS011;40911;51.552;9.874;2023-02-04T15:11:36;3.33;;;3.03;;
13795;SDS011;40911;51.552;9.874;2023-02-04T15:13:58;3.10;;;2.90;;
13795;SDS011;40911;51.552;9.874;2023-02-04T15:16:20;3.10;;;2.80;;
13795;SDS011;40911;51.552;9.874;2023-02-04T15:18:42;3.05;;;2.85;;
13795;SDS011;40911;51.552;9.874;2023-02-04T15:21:04;3.42;;;3.13;;
13795;SDS011;40911;51.552;9.874;2023-02-04T15:25:49;3.17;;;2.97;;
13795;SDS011;40911;51.552;9.874;2023-02-04T15:28:16;4.40;;;4.00;;
13795;SDS011;40911;51.552;9.874;2023-02-04T15:30:38;3.30;;;3.00;;
13795;SDS011;40911;51.552;9.874;2023-02-04T15:33:00;5.35;;;3.40;;
13795;SDS011;40911;51.552;9.874;2023-02-04T15:35:22;3.50;;;3.22;;
13795;SDS011;40911;51.552;9.874;2023-02-04T15:40:05;4.50;;;2.83;;
13795;SDS011;40911;51.552;9.874;2023-02-04T15:42:29;5.65;;;3.72;;
13795;SDS011;40911;51.552;9.874;2023-02-04T15:44:52;5.25;;;3.72;;
13795;SDS011;40911;51.552;9.874;2023-02-04T15:49:35;5.35;;;4.78;;
13795;SDS011;40911;51.552;9.874;2023-02-04T15:51:57;11.85;;;7.47;;